createdAt,value
2023-03-26T00:01:00.798Z,96498.50
2023-03-26T00:03:27.805Z,96489.97
2023-03-26T00:06:08.610Z,96498.00
2023-03-26T00:08:36.739Z,96487.31
2023-03-26T00:11:05.815Z,96479.72
2023-03-26T00:13:33.131Z,96486.13
2023-03-26T00:16:00.548Z,96499.38
2023-03-26T00:18:34.855Z,96494.50
2023-03-26T00:21:03.421Z,96496.69
2023-03-26T00:23:31.267Z,96508.47
2023-03-26T00:25:57.751Z,96508.13
2023-03-26T00:28:24.720Z,96513.75
2023-03-26T00:30:59.425Z,96515.84
2023-03-26T00:33:26.710Z,96508.78
2023-03-26T00:35:55.172Z,96496.34
2023-03-26T00:38:23.980Z,96504.28
2023-03-26T00:40:51.801Z,96518.22
2023-03-26T00:43:20.100Z,96509.06
2023-03-26T00:45:53.363Z,96506.97
2023-03-26T00:48:34.302Z,96505.34
2023-03-26T00:51:10.818Z,96505.34
2023-03-26T00:53:38.999Z,96511.56
2023-03-26T00:56:07.082Z,96493.72
2023-03-26T00:58:34.010Z,96506.97
2023-03-26T01:01:03.601Z,96487.94
2023-03-26T01:03:36.250Z,96491.03
2023-03-26T01:06:04.849Z,96497.59
2023-03-26T01:08:38.250Z,96482.88
2023-03-26T01:11:13.816Z,96472.41
2023-03-26T01:14:02.448Z,96468.94
2023-03-26T01:16:41.549Z,96462.34
2023-03-26T01:19:16.415Z,96468.66
2023-03-26T01:21:42.764Z,96474.31
2023-03-26T01:24:10.161Z,96470.66
2023-03-26T01:26:52.724Z,96463.03
2023-03-26T01:29:28.980Z,96452.59
2023-03-26T01:32:27.364Z,96459.56
2023-03-26T01:35:27.468Z,96450.59
2023-03-26T01:38:14.739Z,96450.13
2023-03-26T01:40:49.385Z,96439.34
2023-03-26T01:43:41.802Z,96449.75
2023-03-26T01:46:11.303Z,96427.91
2023-03-26T01:48:41.822Z,96438.94
2023-03-26T01:51:09.636Z,96428.63
2023-03-26T01:53:42.480Z,96436.84
2023-03-26T01:56:30.238Z,96422.34
2023-03-26T01:59:29.346Z,96424.06
2023-03-26T02:02:26.636Z,96423.88
2023-03-26T02:04:59.136Z,96419.94
2023-03-26T02:07:37.886Z,96416.31
2023-03-26T02:10:14.331Z,96407.34
2023-03-26T02:12:42.446Z,96407.03
2023-03-26T02:15:09.730Z,96392.81
2023-03-26T02:17:36.331Z,96395.50
2023-03-26T02:20:06.020Z,96385.56
2023-03-26T02:22:32.510Z,96393.38
2023-03-26T02:24:58.862Z,96381.63
2023-03-26T02:27:25.202Z,96380.03
2023-03-26T02:29:51.654Z,96378.44
2023-03-26T02:32:19.418Z,96379.31
2023-03-26T02:34:45.799Z,96392.66
2023-03-26T02:37:12.167Z,96386.38
2023-03-26T02:39:38.536Z,96383.13
2023-03-26T02:42:05.156Z,96377.50
2023-03-26T02:44:31.565Z,96366.53
2023-03-26T02:46:58.003Z,96376.75
2023-03-26T02:49:24.395Z,96372.06
2023-03-26T02:51:50.820Z,96369.00
2023-03-26T02:54:18.202Z,96368.44
2023-03-26T02:56:44.597Z,96354.88
2023-03-26T02:59:11.182Z,96355.53
2023-03-26T03:01:42.767Z,96337.50
2023-03-26T03:04:12.526Z,96346.91
2023-03-26T03:06:40.357Z,96338.69
2023-03-26T03:09:11.166Z,96342.31
2023-03-26T03:11:41.317Z,96330.78
2023-03-26T03:14:07.941Z,96334.13
2023-03-26T03:16:34.340Z,96327.44
2023-03-26T03:19:01.757Z,96326.69
2023-03-26T03:21:29.095Z,96305.97
2023-03-26T03:23:56.301Z,96304.63
2023-03-26T03:26:29.547Z,96304.63
2023-03-26T03:28:57.493Z,96305.28
2023-03-26T03:31:25.515Z,96299.47
2023-03-26T03:33:52.019Z,96300.41
2023-03-26T03:36:24.127Z,96297.06
2023-03-26T03:38:51.047Z,96285.88
2023-03-26T03:41:18.556Z,96277.66
2023-03-26T03:43:45.597Z,96287.91
2023-03-26T03:46:12.052Z,96284.69
2023-03-26T03:48:39.068Z,96283.09
2023-03-26T03:51:06.289Z,96284.16
2023-03-26T03:53:36.869Z,96286.16
2023-03-26T03:56:04.677Z,96286.47
2023-03-26T03:58:31.191Z,96283.22
2023-03-26T04:01:00.786Z,96283.41
2023-03-26T04:03:33.649Z,96277.94
2023-03-26T04:06:01.203Z,96265.28
2023-03-26T04:08:27.549Z,96266.72
2023-03-26T04:10:53.902Z,96264.88
2023-03-26T04:13:20.444Z,96255.44
2023-03-26T04:15:46.966Z,96258.19
2023-03-26T04:18:13.323Z,96229.19
2023-03-26T04:20:46.258Z,96225.53
2023-03-26T04:23:14.700Z,96232.56
2023-03-26T04:25:43.724Z,96222.72
2023-03-26T04:28:14.617Z,96226.34
2023-03-26T04:30:42.367Z,96217.56
2023-03-26T04:33:15.460Z,96209.97
2023-03-26T04:35:44.311Z,96213.88
2023-03-26T04:38:11.651Z,96208.56
2023-03-26T04:40:39.046Z,96197.47
2023-03-26T04:43:06.296Z,96193.06
2023-03-26T04:45:32.755Z,96186.84
2023-03-26T04:47:59.942Z,96189.91
2023-03-26T04:50:26.692Z,96182.31
2023-03-26T04:52:54.727Z,96178.97
2023-03-26T04:55:27.672Z,96178.19
2023-03-26T04:57:57.219Z,96164.53
2023-03-26T05:00:23.793Z,96159.38
2023-03-26T05:02:50.523Z,96154.66
2023-03-26T05:05:17.748Z,96140.63
2023-03-26T05:07:45.310Z,96141.41
2023-03-26T05:10:13.935Z,96129.53
2023-03-26T05:12:40.897Z,96127.53
2023-03-26T05:15:08.917Z,96127.88
2023-03-26T05:17:41.214Z,96116.63
2023-03-26T05:20:20.546Z,96106.91
2023-03-26T05:22:48.927Z,96109.66
2023-03-26T05:25:16.673Z,96111.47
2023-03-26T05:27:43.891Z,96107.09
2023-03-26T05:30:14.498Z,96103.44
2023-03-26T05:32:41.033Z,96091.56
2023-03-26T05:35:07.927Z,96099.63
2023-03-26T05:37:34.843Z,96081.56
2023-03-26T05:40:01.886Z,96080.81
2023-03-26T05:42:28.303Z,96080.53
2023-03-26T05:44:54.638Z,96083.75
2023-03-26T05:47:21.068Z,96065.84
2023-03-26T05:49:47.402Z,96065.78
2023-03-26T05:52:16.091Z,96074.34
2023-03-26T05:54:42.600Z,96056.41
2023-03-26T05:57:09.103Z,96055.19
2023-03-26T05:59:36.572Z,96060.38
2023-03-26T06:02:03.392Z,96052.47
2023-03-26T06:04:29.812Z,96045.63
2023-03-26T06:06:56.934Z,96047.16
2023-03-26T06:09:23.737Z,96035.81
2023-03-26T06:11:50.227Z,96042.78
2023-03-26T06:14:16.928Z,96043.41
2023-03-26T06:16:43.285Z,96039.16
2023-03-26T06:19:09.685Z,96052.38
2023-03-26T06:21:36.112Z,96057.84
2023-03-26T06:24:02.643Z,96033.09
2023-03-26T06:26:29.038Z,96041.69
2023-03-26T06:28:55.491Z,96033.38
2023-03-26T06:31:21.975Z,96042.06
2023-03-26T06:33:48.719Z,96039.75
2023-03-26T06:36:15.301Z,96029.75
2023-03-26T06:38:41.796Z,96024.28
2023-03-26T06:41:08.187Z,96031.44
2023-03-26T06:43:36.107Z,96013.66
2023-03-26T06:46:03.245Z,96011.97
2023-03-26T06:48:29.626Z,96024.72
2023-03-26T06:50:56.417Z,96013.47
2023-03-26T06:53:23.170Z,96001.81
2023-03-26T06:55:49.510Z,96010.00
2023-03-26T06:58:16.689Z,96000.75
2023-03-26T07:00:43.250Z,96002.91
2023-03-26T07:03:11.225Z,96001.22
2023-03-26T07:05:38.693Z,95995.16
2023-03-26T07:08:05.764Z,95984.97
2023-03-26T07:10:32.442Z,95967.06
2023-03-26T07:12:58.809Z,95962.22
2023-03-26T07:15:25.221Z,95955.88
2023-03-26T07:17:51.740Z,95967.25
2023-03-26T07:20:18.220Z,95953.28
2023-03-26T07:22:44.855Z,95952.53
2023-03-26T07:25:12.779Z,95957.41
2023-03-26T07:27:51.715Z,95954.22
2023-03-26T07:30:34.248Z,95946.66
2023-03-26T07:33:14.069Z,95937.41
2023-03-26T07:35:53.312Z,95935.13
2023-03-26T07:38:47.543Z,95935.72
2023-03-26T07:41:52.669Z,95928.91
2023-03-26T07:44:54.892Z,95927.84
2023-03-26T07:47:30.047Z,95931.19
2023-03-26T07:49:59.600Z,95906.16
2023-03-26T07:52:26.990Z,95916.31
2023-03-26T07:54:53.816Z,95901.88
2023-03-26T07:57:52.379Z,95915.25
2023-03-26T08:00:39.745Z,95902.22
2023-03-26T08:03:32.255Z,95902.94
2023-03-26T08:06:12.505Z,95893.56
2023-03-26T08:08:52.592Z,95889.78
2023-03-26T08:11:45.949Z,95895.22
2023-03-26T08:14:22.617Z,95905.25
2023-03-26T08:16:53.519Z,95899.03
2023-03-26T08:19:38.629Z,95893.28
2023-03-26T08:22:26.287Z,95873.25
2023-03-26T08:25:11.352Z,95888.75
2023-03-26T08:27:54.300Z,95870.38
2023-03-26T08:30:23.304Z,95866.28
2023-03-26T08:32:56.690Z,95860.34
2023-03-26T08:35:24.629Z,95872.66
2023-03-26T08:37:51.862Z,95859.16
2023-03-26T08:40:45.423Z,95852.19
2023-03-26T08:43:42.899Z,95846.72
2023-03-26T08:46:24.925Z,95833.69
2023-03-26T08:48:59.972Z,95846.41
2023-03-26T08:52:09.704Z,95847.16
2023-03-26T08:55:07.223Z,95846.41
2023-03-26T08:57:58.727Z,95862.63
2023-03-26T09:00:36.025Z,95860.78
2023-03-26T09:03:23.426Z,95857.59
2023-03-26T09:06:04.175Z,95865.31
2023-03-26T09:08:54.403Z,95860.50
2023-03-26T09:11:37.200Z,95842.59
2023-03-26T09:14:15.566Z,95844.44
2023-03-26T09:17:15.785Z,95829.88
2023-03-26T09:20:03.892Z,95840.06
2023-03-26T09:23:01.209Z,95841.72
2023-03-26T09:26:03.475Z,95844.91
2023-03-26T09:28:45.911Z,95827.13
2023-03-26T09:31:23.562Z,95823.78
2023-03-26T09:34:23.477Z,95836.84
2023-03-26T09:37:07.800Z,95835.03
2023-03-26T09:39:37.418Z,95828.50
2023-03-26T09:42:32.170Z,95813.91
2023-03-26T09:45:10.514Z,95812.81
2023-03-26T09:47:48.450Z,95818.28
2023-03-26T09:50:42.633Z,95810.22
2023-03-26T09:53:14.929Z,95810.22
2023-03-26T09:56:00.198Z,95803.59
2023-03-26T09:58:32.555Z,95802.06
2023-03-26T10:01:12.484Z,95800.84
2023-03-26T10:03:42.003Z,95798.84
2023-03-26T10:06:51.366Z,95801.44
2023-03-26T10:09:39.043Z,95803.25
2023-03-26T10:12:24.257Z,95785.16
2023-03-26T10:15:22.827Z,95779.22
2023-03-26T10:18:27.044Z,95777.00
2023-03-26T10:21:38.721Z,95776.06
2023-03-26T10:24:07.798Z,95776.13
2023-03-26T10:26:34.163Z,95776.88
2023-03-26T10:29:15.899Z,95782.28
2023-03-26T10:32:00.862Z,95776.75
2023-03-26T10:35:09.583Z,95770.56
2023-03-26T10:38:03.391Z,95768.69
2023-03-26T10:40:42.988Z,95759.94
2023-03-26T10:43:30.143Z,95758.34
2023-03-26T10:46:10.558Z,95766.16
2023-03-26T10:49:09.383Z,95774.25
2023-03-26T10:51:49.323Z,95782.31
2023-03-26T10:54:56.303Z,95779.97
2023-03-26T10:57:26.218Z,95769.69
2023-03-26T10:59:57.777Z,95770.16
2023-03-26T11:02:30.205Z,95777.31
2023-03-26T11:05:46.689Z,95774.56
2023-03-26T11:08:35.905Z,95767.06
2023-03-26T11:11:25.116Z,95762.53
2023-03-26T11:14:08.702Z,95757.47
2023-03-26T11:17:02.719Z,95764.13
2023-03-26T11:19:42.638Z,95740.25
2023-03-26T11:22:34.838Z,95746.22
2023-03-26T11:25:32.149Z,95742.66
2023-03-26T11:28:21.836Z,95752.59
2023-03-26T11:30:59.438Z,95738.81
2023-03-26T11:33:33.057Z,95737.31
2023-03-26T11:36:05.634Z,95738.81
2023-03-26T11:38:37.802Z,95723.91
2023-03-26T11:41:12.181Z,95741.09
2023-03-26T11:43:38.541Z,95729.13
2023-03-26T11:46:10.899Z,95729.31
2023-03-26T11:48:39.700Z,95731.41
2023-03-26T11:51:10.670Z,95721.47
2023-03-26T11:53:46.818Z,95736.69
2023-03-26T11:56:33.938Z,95717.06
2023-03-26T11:59:31.881Z,95726.22
2023-03-26T12:02:21.227Z,95723.81
2023-03-26T12:04:51.653Z,95711.97
2023-03-26T12:07:31.784Z,95709.59
2023-03-26T12:10:18.360Z,95709.94
2023-03-26T12:12:46.678Z,95714.19
2023-03-26T12:15:19.002Z,95714.75
2023-03-26T12:17:53.510Z,95713.78
2023-03-26T12:20:25.754Z,95715.41
2023-03-26T12:22:59.413Z,95714.22
2023-03-26T12:25:28.561Z,95718.41
2023-03-26T12:28:04.759Z,95714.97
2023-03-26T12:30:39.469Z,95710.09
2023-03-26T12:33:14.291Z,95707.75
2023-03-26T12:35:40.805Z,95710.56
2023-03-26T12:38:30.232Z,95700.09
2023-03-26T12:43:51.346Z,95700.31
2023-03-26T12:44:56.341Z,95697.38
2023-03-26T12:47:57.413Z,95698.44
2023-03-26T12:50:14.442Z,95687.31
2023-03-26T12:53:08.257Z,95682.22
2023-03-26T12:55:42.212Z,95679.31
2023-03-26T12:58:42.822Z,95690.91
2023-03-26T13:01:15.946Z,95680.66
2023-03-26T13:04:00.349Z,95671.78
2023-03-26T13:07:00.842Z,95663.13
2023-03-26T13:09:49.314Z,95662.94
2023-03-26T13:12:22.976Z,95671.69
2023-03-26T13:15:09.902Z,95675.19
2023-03-26T13:17:55.182Z,95677.69
2023-03-26T13:20:58.975Z,95683.00
2023-03-26T13:23:55.708Z,95683.41
2023-03-26T13:27:00.199Z,95676.16
2023-03-26T13:29:56.131Z,95666.88
2023-03-26T13:32:58.966Z,95654.47
2023-03-26T13:35:51.196Z,95640.31
2023-03-26T13:38:37.518Z,95654.22
2023-03-26T13:41:18.696Z,95666.59
2023-03-26T13:43:53.957Z,95664.41
2023-03-26T13:46:38.220Z,95644.34
2023-03-26T13:49:19.425Z,95631.59
2023-03-26T13:52:04.747Z,95653.44
2023-03-26T13:54:44.613Z,95650.94
2023-03-26T13:57:20.228Z,95650.63
2023-03-26T14:00:06.527Z,95644.25
2023-03-26T14:02:38.900Z,95657.91
2023-03-26T14:05:26.133Z,95640.50
2023-03-26T14:08:31.711Z,95648.88
2023-03-26T14:11:07.677Z,95641.16
2023-03-26T14:13:43.485Z,95638.25
2023-03-26T14:16:20.682Z,95640.66
2023-03-26T14:19:24.738Z,95659.59
2023-03-26T14:22:02.254Z,95638.50
2023-03-26T14:24:43.756Z,95641.94
2023-03-26T14:27:32.308Z,95635.91
2023-03-26T14:30:25.493Z,95639.09
2023-03-26T14:33:17.761Z,95641.63
2023-03-26T14:36:13.463Z,95633.31
2023-03-26T14:39:11.814Z,95625.34
2023-03-26T14:41:53.576Z,95624.19
2023-03-26T14:44:56.243Z,95635.66
2023-03-26T14:47:24.662Z,95640.84
2023-03-26T14:50:26.503Z,95633.72
2023-03-26T14:53:01.442Z,95632.72
2023-03-26T14:56:02.261Z,95639.09
2023-03-26T14:59:07.284Z,95646.50
2023-03-26T15:02:11.160Z,95655.41
2023-03-26T15:05:15.033Z,95647.41
2023-03-26T15:08:17.022Z,95652.44
2023-03-26T15:11:22.305Z,95663.72
2023-03-26T15:21:51.170Z,95737.63
2023-03-26T15:24:27.229Z,95734.69
2023-03-26T15:27:27.801Z,95744.31
2023-03-26T15:30:10.171Z,95729.38
2023-03-26T15:33:01.250Z,95722.56
2023-03-26T15:36:05.455Z,95702.97
2023-03-26T15:38:59.973Z,95683.97
2023-03-26T15:41:30.122Z,95695.81
2023-03-26T15:44:23.942Z,95700.06
2023-03-26T15:46:58.272Z,95686.25
2023-03-26T15:49:54.929Z,95690.84
2023-03-26T15:52:44.729Z,95689.69
2023-03-26T15:55:17.075Z,95697.59
2023-03-26T15:57:56.825Z,95693.78
2023-03-26T16:00:25.812Z,95697.38
2023-03-26T16:03:14.878Z,95696.09
2023-03-26T16:05:56.270Z,95703.75
2023-03-26T16:08:38.570Z,95715.22
2023-03-26T16:11:12.643Z,95701.13
2023-03-26T16:13:54.556Z,95713.88
2023-03-26T16:16:23.999Z,95722.69
2023-03-26T16:19:18.046Z,95723.97
2023-03-26T16:21:55.666Z,95717.13
2023-03-26T16:24:26.135Z,95716.38
2023-03-26T16:27:08.153Z,95723.69
2023-03-26T16:30:00.521Z,95722.34
2023-03-26T16:32:32.489Z,95728.28
2023-03-26T16:35:01.936Z,95714.75
2023-03-26T16:37:31.825Z,95724.78
2023-03-26T16:40:16.641Z,95726.44
2023-03-26T16:43:02.758Z,95718.88
2023-03-26T16:45:54.859Z,95727.22
2023-03-26T16:48:39.665Z,95727.22
2023-03-26T16:51:16.969Z,95723.00
2023-03-26T16:54:12.865Z,95735.09
2023-03-26T16:56:58.356Z,95737.09
2023-03-26T17:00:06.252Z,95731.75
2023-03-26T17:02:56.716Z,95734.00
2023-03-26T17:05:56.540Z,95743.44
2023-03-26T17:08:35.514Z,95748.91
2023-03-26T17:11:38.374Z,95756.78
2023-03-26T17:14:09.637Z,95761.63
2023-03-26T17:17:04.955Z,95762.97
2023-03-26T17:20:17.576Z,95757.06
2023-03-26T17:22:51.361Z,95775.75
2023-03-26T17:25:35.041Z,95776.09
2023-03-26T17:28:19.965Z,95787.06
2023-03-26T17:31:10.846Z,95785.16
2023-03-26T17:33:39.063Z,95774.09
2023-03-26T17:36:11.903Z,95791.41
2023-03-26T17:38:38.861Z,95791.75
2023-03-26T17:41:07.321Z,95793.38
2023-03-26T17:43:44.387Z,95799.03
2023-03-26T17:46:31.782Z,95790.69
2023-03-26T17:49:03.241Z,95793.28
2023-03-26T17:51:44.572Z,95798.56
2023-03-26T17:54:22.124Z,95784.47
2023-03-26T17:56:51.688Z,95790.56
2023-03-26T17:59:24.975Z,95781.47
2023-03-26T18:01:55.811Z,95782.25
2023-03-26T18:04:31.812Z,95792.25
2023-03-26T18:07:43.938Z,95789.69
2023-03-26T18:10:27.498Z,95795.59
2023-03-26T18:13:08.593Z,95793.16
2023-03-26T18:16:12.374Z,95802.88
2023-03-26T18:18:58.854Z,95802.75
2023-03-26T18:21:39.386Z,95799.38
2023-03-26T18:24:08.788Z,95815.16
2023-03-26T18:26:42.926Z,95808.63
2023-03-26T18:29:23.962Z,95820.31
2023-03-26T18:32:03.449Z,95818.81
2023-03-26T18:34:32.433Z,95823.03
2023-03-26T18:37:08.419Z,95824.72
2023-03-26T18:39:35.053Z,95828.06
2023-03-26T18:42:01.502Z,95824.09
2023-03-26T18:44:28.131Z,95833.66
2023-03-26T18:46:55.258Z,95822.59
2023-03-26T18:49:23.884Z,95836.72
2023-03-26T18:51:57.111Z,95838.53
2023-03-26T18:54:25.136Z,95841.88
2023-03-26T18:56:52.582Z,95832.75
2023-03-26T18:59:27.916Z,95838.69
2023-03-26T19:01:59.800Z,95835.34
2023-03-26T19:04:28.117Z,95840.19
2023-03-26T19:06:55.975Z,95840.34
2023-03-26T19:09:31.719Z,95848.84
2023-03-26T19:12:09.038Z,95845.66
2023-03-26T19:15:11.163Z,95861.28
2023-03-26T19:17:44.461Z,95847.75
2023-03-26T19:20:19.396Z,95855.53
2023-03-26T19:22:47.513Z,95857.94
2023-03-26T19:25:24.050Z,95854.44
2023-03-26T19:27:51.638Z,95850.03
2023-03-26T19:30:40.548Z,95859.31
2023-03-26T19:33:16.262Z,95857.63
2023-03-26T19:35:44.608Z,95872.34
2023-03-26T19:38:38.743Z,95869.31
2023-03-26T19:41:05.456Z,95870.06
2023-03-26T19:43:31.918Z,95867.03
2023-03-26T19:46:01.244Z,95870.22
2023-03-26T19:48:45.842Z,95880.09
2023-03-26T19:51:20.427Z,95880.22
2023-03-26T19:53:51.295Z,95871.56
2023-03-26T19:56:20.594Z,95882.66
2023-03-26T19:58:47.254Z,95885.97
2023-03-26T20:01:19.729Z,95883.09
2023-03-26T20:03:49.016Z,95888.25
2023-03-26T20:06:18.664Z,95890.06
2023-03-26T20:08:45.368Z,95892.34
2023-03-26T20:11:22.113Z,95907.22
2023-03-26T20:13:49.917Z,95903.91
2023-03-26T20:16:30.784Z,95918.16
2023-03-26T20:18:58.318Z,95907.38
2023-03-26T20:21:25.657Z,95919.50
2023-03-26T20:23:55.203Z,95925.56
2023-03-26T20:26:23.335Z,95914.44
2023-03-26T20:28:53.466Z,95937.22
2023-03-26T20:31:23.243Z,95927.03
2023-03-26T20:33:50.801Z,95946.28
2023-03-26T20:36:33.721Z,95931.88
2023-03-26T20:39:01.155Z,95950.63
2023-03-26T20:41:27.794Z,95965.06
2023-03-26T20:43:54.145Z,95969.63
2023-03-26T20:46:31.316Z,95974.78
2023-03-26T20:48:59.323Z,95977.81
2023-03-26T20:51:28.051Z,95985.50
2023-03-26T20:53:55.187Z,95991.41
2023-03-26T20:56:21.782Z,95984.09
2023-03-26T20:59:10.009Z,95986.66
2023-03-26T21:01:38.188Z,95994.53
2023-03-26T21:04:04.973Z,96006.09
2023-03-26T21:06:31.748Z,95999.09
2023-03-26T21:08:58.381Z,96012.09
2023-03-26T21:11:40.885Z,96020.88
2023-03-26T21:14:13.815Z,96027.44
2023-03-26T21:16:40.476Z,96029.81
2023-03-26T21:19:09.074Z,96021.06
2023-03-26T21:22:13.716Z,96043.19
2023-03-26T21:24:51.653Z,96028.72
2023-03-26T21:27:39.191Z,96053.91
2023-03-26T21:30:16.410Z,96046.69
2023-03-26T21:32:44.883Z,96053.38
2023-03-26T21:35:13.504Z,96061.16
2023-03-26T21:37:42.897Z,96067.78
2023-03-26T21:40:16.964Z,96054.41
2023-03-26T21:42:48.950Z,96070.19
2023-03-26T21:45:15.751Z,96072.00
2023-03-26T21:47:42.557Z,96081.19
2023-03-26T21:50:11.347Z,96093.75
2023-03-26T21:52:46.584Z,96100.31
2023-03-26T21:55:24.233Z,96099.97
2023-03-26T21:58:21.695Z,96100.75
2023-03-26T22:01:16.004Z,96116.59
2023-03-26T22:04:09.827Z,96129.75
2023-03-26T22:07:02.663Z,96127.03
2023-03-26T22:09:36.436Z,96137.44
2023-03-26T22:12:03.897Z,96145.84
2023-03-26T22:14:30.236Z,96143.94
2023-03-26T22:16:56.807Z,96163.38
2023-03-26T22:19:23.139Z,96159.13
2023-03-26T22:21:50.936Z,96177.00
2023-03-26T22:24:17.601Z,96174.06
2023-03-26T22:26:43.954Z,96192.13
2023-03-26T22:29:10.441Z,96203.75
2023-03-26T22:31:41.652Z,96212.13
2023-03-26T22:34:08.714Z,96223.41
2023-03-26T22:36:35.160Z,96218.81
2023-03-26T22:39:01.732Z,96222.88
2023-03-26T22:41:29.574Z,96227.94
2023-03-26T22:43:59.529Z,96210.00
2023-03-26T22:46:28.703Z,96232.75
2023-03-26T22:48:56.890Z,96236.56
2023-03-26T22:51:23.710Z,96246.69
2023-03-26T22:53:50.120Z,96238.69
2023-03-26T22:56:17.075Z,96236.00
2023-03-26T22:58:43.429Z,96260.09
2023-03-26T23:01:17.771Z,96257.88
2023-03-26T23:03:44.820Z,96269.63
2023-03-26T23:06:12.106Z,96280.59
2023-03-26T23:08:39.209Z,96277.00
2023-03-26T23:11:13.734Z,96281.34
2023-03-26T23:13:41.649Z,96262.94
2023-03-26T23:16:10.075Z,96261.97
2023-03-26T23:18:37.696Z,96269.34
2023-03-26T23:21:05.919Z,96262.47
2023-03-26T23:23:38.870Z,96289.63
2023-03-26T23:26:06.635Z,96293.50
2023-03-26T23:28:34.316Z,96279.03
2023-03-26T23:31:03.234Z,96301.31
2023-03-26T23:33:34.097Z,96297.34
2023-03-26T23:36:04.217Z,96322.69
2023-03-26T23:38:44.092Z,96315.00
2023-03-26T23:41:14.697Z,96316.69
2023-03-26T23:43:53.653Z,96320.84
2023-03-26T23:46:30.818Z,96340.53
2023-03-26T23:48:59.589Z,96348.28
2023-03-26T23:51:26.116Z,96350.69
2023-03-26T23:53:53.390Z,96365.00
2023-03-26T23:56:20.079Z,96368.31
2023-03-26T23:58:48.625Z,96385.38
